createdAt,value
2023-01-12T00:01:27.172Z,2.83
2023-01-12T00:03:54.503Z,2.80
2023-01-12T00:06:22.115Z,2.50
2023-01-12T00:08:49.899Z,3.00
2023-01-12T00:11:17.852Z,4.07
2023-01-12T00:13:45.420Z,2.90
2023-01-12T00:16:39.579Z,2.97
2023-01-12T00:19:33.551Z,2.60
2023-01-12T00:22:14.705Z,2.53
2023-01-12T00:24:44.255Z,2.87
2023-01-12T00:27:14.651Z,2.90
2023-01-12T00:29:41.455Z,2.77
2023-01-12T00:32:14.435Z,3.20
2023-01-12T00:34:41.760Z,2.93
2023-01-12T00:37:09.128Z,2.80
2023-01-12T00:39:40.400Z,2.30
2023-01-12T00:42:26.514Z,3.20
2023-01-12T00:45:11.971Z,3.63
2023-01-12T00:47:38.801Z,2.53
2023-01-12T00:50:05.862Z,2.77
2023-01-12T00:52:32.455Z,3.03
2023-01-12T00:54:59.952Z,2.90
2023-01-12T00:57:28.464Z,2.60
2023-01-12T00:59:58.377Z,2.63
2023-01-12T01:02:25.682Z,3.07
2023-01-12T01:04:52.419Z,2.80
2023-01-12T01:07:21.804Z,3.40
2023-01-12T01:09:49.209Z,2.50
2023-01-12T01:12:17.765Z,2.50
2023-01-12T01:14:45.005Z,2.30
2023-01-12T01:17:11.722Z,2.60
2023-01-12T01:19:38.497Z,2.10
2023-01-12T01:22:05.258Z,2.20
2023-01-12T01:24:31.928Z,2.30
2023-01-12T01:26:58.643Z,2.20
2023-01-12T01:29:25.248Z,2.00
2023-01-12T01:31:54.985Z,2.13
2023-01-12T01:34:21.623Z,1.87
2023-01-12T01:36:48.190Z,2.10
2023-01-12T01:39:14.936Z,2.77
2023-01-12T01:41:43.677Z,2.27
2023-01-12T01:44:29.290Z,2.90
2023-01-12T01:47:00.097Z,2.53
2023-01-12T01:49:29.966Z,2.30
2023-01-12T01:52:06.300Z,2.40
2023-01-12T01:54:38.895Z,2.57
2023-01-12T01:57:06.476Z,3.20
2023-01-12T01:59:34.937Z,3.07
2023-01-12T02:02:02.761Z,3.20
2023-01-12T02:04:30.311Z,2.97
2023-01-12T02:06:57.782Z,3.33
2023-01-12T02:09:28.321Z,2.83
2023-01-12T02:12:13.850Z,3.33
2023-01-12T02:15:00.001Z,3.03
2023-01-12T02:18:03.847Z,3.40
2023-01-12T02:20:48.419Z,3.10
2023-01-12T02:23:30.396Z,3.00
2023-01-12T02:26:08.854Z,3.10
2023-01-12T02:28:46.611Z,3.43
2023-01-12T02:31:23.014Z,3.50
2023-01-12T02:33:54.627Z,3.60
2023-01-12T02:36:45.853Z,3.23
2023-01-12T02:39:24.029Z,3.23
2023-01-12T02:42:25.941Z,3.30
2023-01-12T02:45:00.625Z,3.00
2023-01-12T02:47:48.220Z,3.47
2023-01-12T02:50:20.444Z,3.63
2023-01-12T02:52:48.799Z,3.50
2023-01-12T02:55:16.469Z,3.03
2023-01-12T02:57:43.364Z,3.73
2023-01-12T03:00:10.616Z,3.23
2023-01-12T03:02:38.200Z,3.27
2023-01-12T03:05:06.013Z,3.43
2023-01-12T03:07:33.116Z,3.47
2023-01-12T03:10:07.347Z,3.20
2023-01-12T03:12:35.264Z,3.33
2023-01-12T03:15:04.985Z,3.80
2023-01-12T03:17:50.659Z,3.33
2023-01-12T03:20:24.299Z,3.70
2023-01-12T03:22:54.803Z,4.00
2023-01-12T03:25:22.215Z,3.90
2023-01-12T03:27:52.015Z,3.90
2023-01-12T03:30:27.065Z,4.33
2023-01-12T03:32:53.915Z,4.00
2023-01-12T03:35:25.985Z,4.10
2023-01-12T03:38:00.071Z,3.57
2023-01-12T03:40:28.167Z,3.70
2023-01-12T03:43:04.179Z,3.80
2023-01-12T03:45:39.945Z,4.60
2023-01-12T03:48:07.679Z,4.10
2023-01-12T03:50:40.250Z,4.20
2023-01-12T03:53:07.812Z,5.27
2023-01-12T03:55:35.448Z,4.43
2023-01-12T03:58:02.345Z,4.13
2023-01-12T04:00:29.493Z,4.53
2023-01-12T04:03:24.471Z,4.40
2023-01-12T04:05:51.442Z,4.70
2023-01-12T04:08:18.680Z,4.33
2023-01-12T04:10:45.466Z,4.00
2023-01-12T04:13:12.115Z,3.90
2023-01-12T04:15:42.544Z,4.23
2023-01-12T04:18:12.799Z,3.70
2023-01-12T04:20:39.625Z,3.93
2023-01-12T04:23:09.766Z,3.97
2023-01-12T04:25:36.824Z,4.10
2023-01-12T04:28:04.459Z,3.53
2023-01-12T04:30:33.215Z,3.30
2023-01-12T04:33:00.681Z,3.53
2023-01-12T04:35:27.737Z,3.13
2023-01-12T04:37:57.621Z,3.40
2023-01-12T04:40:25.124Z,3.80
2023-01-12T04:43:08.531Z,2.80
2023-01-12T04:45:38.227Z,3.10
2023-01-12T04:48:06.986Z,3.90
2023-01-12T04:50:33.924Z,3.27
2023-01-12T04:53:08.137Z,3.70
2023-01-12T04:55:39.398Z,3.67
2023-01-12T04:58:06.140Z,3.53
2023-01-12T05:00:33.110Z,3.70
2023-01-12T05:03:02.444Z,3.70
2023-01-12T05:05:33.470Z,3.50
2023-01-12T05:08:21.188Z,3.10
2023-01-12T05:10:58.323Z,3.83
2023-01-12T05:13:27.337Z,3.10
2023-01-12T05:15:54.045Z,3.00
2023-01-12T05:18:20.729Z,2.93
2023-01-12T05:20:47.331Z,3.10
2023-01-12T05:23:14.036Z,2.97
2023-01-12T05:25:40.636Z,2.63
2023-01-12T05:28:07.305Z,3.10
2023-01-12T05:30:34.053Z,2.67
2023-01-12T05:33:00.867Z,2.77
2023-01-12T05:35:27.551Z,2.97
2023-01-12T05:37:57.387Z,2.80
2023-01-12T05:40:24.566Z,2.97
2023-01-12T05:43:12.733Z,2.90
2023-01-12T05:45:39.394Z,2.63
2023-01-12T05:48:06.561Z,2.80
2023-01-12T05:50:33.313Z,2.30
2023-01-12T05:53:12.196Z,2.83
2023-01-12T05:55:38.977Z,2.40
2023-01-12T05:58:05.885Z,2.40
2023-01-12T06:00:32.802Z,3.73
2023-01-12T06:02:59.426Z,2.23
2023-01-12T06:05:26.101Z,2.83
2023-01-12T06:07:52.851Z,1.90
2023-01-12T06:10:19.769Z,1.97
2023-01-12T06:13:08.590Z,2.00
2023-01-12T06:15:35.397Z,2.17
2023-01-12T06:18:02.075Z,1.80
2023-01-12T06:20:28.756Z,1.80
2023-01-12T06:22:55.652Z,2.07
2023-01-12T06:25:22.295Z,1.80
2023-01-12T06:27:48.934Z,1.93
2023-01-12T06:30:15.644Z,2.00
2023-01-12T06:32:42.302Z,2.00
2023-01-12T06:35:18.753Z,1.57
2023-01-12T06:37:46.511Z,1.60
2023-01-12T06:40:13.537Z,1.57
2023-01-12T06:42:42.112Z,1.47
2023-01-12T06:45:09.793Z,1.60
2023-01-12T06:47:44.971Z,1.80
2023-01-12T06:50:12.250Z,1.40
2023-01-12T06:52:38.959Z,1.70
2023-01-12T06:55:05.698Z,1.60
2023-01-12T06:57:32.415Z,1.30
2023-01-12T06:59:59.033Z,1.70
2023-01-12T07:02:25.746Z,1.23
2023-01-12T07:04:54.584Z,1.30
2023-01-12T07:07:21.196Z,1.37
2023-01-12T07:09:47.808Z,1.30
2023-01-12T07:12:14.483Z,1.13
2023-01-12T07:14:41.162Z,1.20
2023-01-12T07:17:07.814Z,1.07
2023-01-12T07:19:36.791Z,1.00
2023-01-12T07:22:05.633Z,1.00
2023-01-12T07:24:36.288Z,1.20
2023-01-12T07:27:05.060Z,1.37
2023-01-12T07:29:31.716Z,1.10
2023-01-12T07:31:58.308Z,1.10
2023-01-12T07:34:24.915Z,0.90
2023-01-12T07:36:51.717Z,1.30
2023-01-12T07:39:18.503Z,1.10
2023-01-12T07:42:03.709Z,1.10
2023-01-12T07:44:32.492Z,1.20
2023-01-12T07:47:01.915Z,0.97
2023-01-12T07:49:28.640Z,1.03
2023-01-12T07:51:55.928Z,1.00
2023-01-12T07:54:22.983Z,1.00
2023-01-12T07:56:49.699Z,1.10
2023-01-12T07:59:16.413Z,1.10
2023-01-12T08:01:43.101Z,0.90
2023-01-12T08:04:09.777Z,1.00
2023-01-12T08:06:36.614Z,1.00
2023-01-12T08:09:08.570Z,1.20
2023-01-12T08:11:35.253Z,1.10
2023-01-12T08:14:02.242Z,1.23
2023-01-12T08:16:36.495Z,1.10
2023-01-12T08:19:07.727Z,1.20
2023-01-12T08:21:41.834Z,1.53
2023-01-12T08:24:09.470Z,1.00
2023-01-12T08:26:39.209Z,1.00
2023-01-12T08:29:18.417Z,1.00
2023-01-12T08:31:45.121Z,1.00
2023-01-12T08:34:11.892Z,0.93
2023-01-12T08:36:38.867Z,1.00
2023-01-12T08:39:05.500Z,1.20
2023-01-12T08:41:37.408Z,1.83
2023-01-12T08:44:08.744Z,1.27
2023-01-12T08:46:39.621Z,1.00
2023-01-12T08:49:11.478Z,1.67
2023-01-12T08:51:41.154Z,1.00
2023-01-12T08:54:09.748Z,1.00
2023-01-12T08:56:36.828Z,1.70
2023-01-12T08:59:04.328Z,0.87
2023-01-12T09:01:31.152Z,1.07
2023-01-12T09:03:58.492Z,1.13
2023-01-12T09:06:32.976Z,1.20
2023-01-12T09:09:01.600Z,1.00
2023-01-12T09:11:29.564Z,1.00
2023-01-12T09:13:58.581Z,1.10
2023-01-12T09:16:30.429Z,1.23
2023-01-12T09:18:57.399Z,1.10
2023-01-12T09:21:25.965Z,1.20
2023-01-12T09:23:53.236Z,1.60
2023-01-12T09:26:24.516Z,1.20
2023-01-12T09:28:51.736Z,1.30
2023-01-12T09:31:21.019Z,1.50
2023-01-12T09:33:47.842Z,1.30
2023-01-12T09:36:19.468Z,1.43
2023-01-12T09:38:47.145Z,1.70
2023-01-12T09:41:45.996Z,1.50
2023-01-12T09:44:34.368Z,1.70
2023-01-12T09:47:03.389Z,1.80
2023-01-12T09:49:34.673Z,2.00
2023-01-12T09:52:16.083Z,2.07
2023-01-12T09:54:43.309Z,2.00
2023-01-12T09:57:47.581Z,2.37
2023-01-12T10:00:18.872Z,2.40
2023-01-12T10:02:55.209Z,2.50
2023-01-12T10:05:40.189Z,2.70
2023-01-12T10:08:14.144Z,3.30
2023-01-12T10:10:45.357Z,2.77
2023-01-12T10:13:14.279Z,2.47
2023-01-12T10:15:46.835Z,2.50
2023-01-12T10:18:21.511Z,2.77
2023-01-12T10:20:48.133Z,2.73
2023-01-12T10:23:16.958Z,2.67
2023-01-12T10:25:47.559Z,2.43
2023-01-12T10:28:18.460Z,2.40
2023-01-12T10:30:45.408Z,2.90
2023-01-12T10:33:14.014Z,3.30
2023-01-12T10:36:02.081Z,3.00
2023-01-12T10:38:38.191Z,3.50
2023-01-12T10:41:09.395Z,3.70
2023-01-12T10:43:37.189Z,5.60
2023-01-12T10:46:15.754Z,4.23
2023-01-12T10:48:47.847Z,6.10
2023-01-12T10:51:27.948Z,3.10
2023-01-12T10:54:01.792Z,4.10
2023-01-12T10:56:35.669Z,4.63
2023-01-12T10:59:19.768Z,3.33
2023-01-12T11:01:53.421Z,3.40
2023-01-12T11:04:26.494Z,3.73
2023-01-12T11:07:16.620Z,3.57
2023-01-12T11:09:43.956Z,3.70
2023-01-12T11:12:23.722Z,3.83
2023-01-12T11:15:22.649Z,3.60
2023-01-12T11:17:58.398Z,4.30
2023-01-12T11:20:42.795Z,4.37
2023-01-12T11:23:23.774Z,3.57
2023-01-12T11:25:54.946Z,4.20
2023-01-12T11:28:35.153Z,4.10
2023-01-12T11:31:07.690Z,4.00
2023-01-12T11:33:37.197Z,3.50
2023-01-12T11:36:03.894Z,4.23
2023-01-12T11:38:43.626Z,3.97
2023-01-12T11:41:21.427Z,6.60
2023-01-12T11:44:26.861Z,3.67
2023-01-12T11:47:14.821Z,3.50
2023-01-12T11:49:44.558Z,3.93
2023-01-12T11:52:11.784Z,6.00
2023-01-12T11:54:39.371Z,3.80
2023-01-12T11:57:27.917Z,3.60
2023-01-12T12:00:03.885Z,3.80
2023-01-12T12:03:02.885Z,3.50
2023-01-12T12:05:32.687Z,3.43
2023-01-12T12:08:14.344Z,3.90
2023-01-12T12:10:41.011Z,4.00
2023-01-12T12:13:26.766Z,3.83
2023-01-12T12:16:18.376Z,4.20
2023-01-12T12:19:06.529Z,4.40
2023-01-12T12:21:36.164Z,4.53
2023-01-12T12:24:36.887Z,4.10
2023-01-12T12:27:06.573Z,4.07
2023-01-12T12:29:45.389Z,3.87
2023-01-12T12:32:20.892Z,5.87
2023-01-12T12:35:32.321Z,4.10
2023-01-12T12:38:20.801Z,4.30
2023-01-12T12:41:34.071Z,3.80
2023-01-12T12:44:54.791Z,4.30
2023-01-12T12:47:34.800Z,4.17
2023-01-12T12:50:03.933Z,4.37
2023-01-12T12:52:34.856Z,4.13
2023-01-12T12:55:02.446Z,4.00
2023-01-12T12:57:29.293Z,4.60
2023-01-12T12:59:56.992Z,4.43
2023-01-12T13:02:38.774Z,4.43
2023-01-12T13:05:08.603Z,4.50
2023-01-12T13:07:40.992Z,4.10
2023-01-12T13:10:21.145Z,4.40
2023-01-12T13:12:56.915Z,4.10
2023-01-12T13:15:29.384Z,3.57
2023-01-12T13:17:56.236Z,3.60
2023-01-12T13:20:26.796Z,3.77
2023-01-12T13:22:55.866Z,3.97
2023-01-12T13:25:28.175Z,4.20
2023-01-12T13:27:57.830Z,4.30
2023-01-12T13:30:30.670Z,3.73
2023-01-12T13:33:15.418Z,3.90
2023-01-12T13:35:47.059Z,3.80
2023-01-12T13:38:19.657Z,3.93
2023-01-12T13:40:55.503Z,4.10
2023-01-12T13:43:34.637Z,4.00
2023-01-12T13:46:04.461Z,4.53
2023-01-12T13:48:35.356Z,4.17
2023-01-12T13:51:07.684Z,4.20
2023-01-12T13:53:34.482Z,4.17
2023-01-12T13:56:03.747Z,3.90
2023-01-12T13:59:04.245Z,4.10
2023-01-12T14:01:36.576Z,4.40
2023-01-12T14:04:21.611Z,4.37
2023-01-12T14:07:07.000Z,5.00
2023-01-12T14:10:08.024Z,4.30
2023-01-12T14:12:56.639Z,4.30
2023-01-12T14:16:01.706Z,3.70
2023-01-12T14:18:51.824Z,5.23
2023-01-12T14:21:23.091Z,4.00
2023-01-12T14:23:50.148Z,4.03
2023-01-12T14:26:22.949Z,4.37
2023-01-12T14:28:51.413Z,4.20
2023-01-12T14:31:31.288Z,3.33
2023-01-12T14:33:59.640Z,3.53
2023-01-12T14:36:34.769Z,3.30
2023-01-12T14:39:01.701Z,3.30
2023-01-12T14:41:48.484Z,3.40
2023-01-12T14:44:43.189Z,2.90
2023-01-12T14:47:10.604Z,3.33
2023-01-12T14:49:38.100Z,3.10
2023-01-12T14:52:18.154Z,3.83
2023-01-12T14:54:44.743Z,2.80
2023-01-12T14:57:31.331Z,3.20
2023-01-12T14:59:58.185Z,3.13
2023-01-12T15:02:34.278Z,2.80
2023-01-12T15:05:09.879Z,2.90
2023-01-12T15:07:39.612Z,3.30
2023-01-12T15:10:09.240Z,3.30
2023-01-12T15:12:39.104Z,3.27
2023-01-12T15:15:18.133Z,4.23
2023-01-12T15:18:03.240Z,3.80
2023-01-12T15:20:52.122Z,3.60
2023-01-12T15:23:37.369Z,3.50
2023-01-12T15:26:04.149Z,3.47
2023-01-12T15:28:31.287Z,3.70
2023-01-12T15:30:57.999Z,4.40
2023-01-12T15:33:24.631Z,4.60
2023-01-12T15:35:51.431Z,5.10
2023-01-12T15:38:18.339Z,4.90
2023-01-12T15:40:47.926Z,4.27
2023-01-12T15:43:16.523Z,5.47
2023-01-12T15:45:45.485Z,4.80
2023-01-12T15:48:13.234Z,4.37
2023-01-12T15:50:44.713Z,5.27
2023-01-12T15:53:22.437Z,3.97
2023-01-12T15:55:51.617Z,4.27
2023-01-12T15:58:19.697Z,4.33
2023-01-12T16:00:46.745Z,4.93
2023-01-12T16:03:32.139Z,4.63
2023-01-12T16:06:00.793Z,5.80
2023-01-12T16:08:28.065Z,4.33
2023-01-12T16:11:09.643Z,4.30
2023-01-12T16:13:36.323Z,4.80
2023-01-12T16:16:03.080Z,3.67
2023-01-12T16:18:30.042Z,4.90
2023-01-12T16:21:01.074Z,4.03
2023-01-12T16:23:28.345Z,3.10
2023-01-12T16:25:56.048Z,2.97
2023-01-12T16:28:22.806Z,2.90
2023-01-12T16:30:49.345Z,3.00
2023-01-12T16:33:17.716Z,2.50
2023-01-12T16:35:45.185Z,2.83
2023-01-12T16:38:17.336Z,2.40
2023-01-12T16:40:46.763Z,2.63
2023-01-12T16:43:13.453Z,2.63
2023-01-12T16:45:46.222Z,2.70
2023-01-12T16:48:13.140Z,2.80
2023-01-12T16:50:41.015Z,3.10
2023-01-12T16:53:08.748Z,2.70
2023-01-12T16:55:38.060Z,2.60
2023-01-12T16:58:26.899Z,3.40
2023-01-12T17:00:53.741Z,3.93
2023-01-12T17:03:21.185Z,3.20
2023-01-12T17:05:50.909Z,3.10
2023-01-12T17:08:34.212Z,3.17
2023-01-12T17:11:06.726Z,2.90
2023-01-12T17:13:33.888Z,3.27
2023-01-12T17:16:00.984Z,3.10
2023-01-12T17:18:36.735Z,3.30
2023-01-12T17:21:06.677Z,3.00
2023-01-12T17:23:33.800Z,3.20
2023-01-12T17:26:09.448Z,3.63
2023-01-12T17:28:36.237Z,3.50
2023-01-12T17:31:08.204Z,3.23
2023-01-12T17:33:35.438Z,3.10
2023-01-12T17:36:04.787Z,2.97
2023-01-12T17:38:32.733Z,3.60
2023-01-12T17:40:59.404Z,3.47
2023-01-12T17:43:26.554Z,3.70
2023-01-12T17:45:53.448Z,4.23
2023-01-12T17:48:20.199Z,4.30
2023-01-12T17:50:47.217Z,4.27
2023-01-12T17:53:14.683Z,4.50
2023-01-12T17:55:48.205Z,4.70
2023-01-12T17:58:18.532Z,4.67
2023-01-12T18:00:45.339Z,4.77
2023-01-12T18:03:12.082Z,4.00
2023-01-12T18:05:44.573Z,3.83
2023-01-12T18:08:11.407Z,3.67
2023-01-12T18:10:38.159Z,5.97
2023-01-12T18:13:04.709Z,4.73
2023-01-12T18:15:31.463Z,4.30
2023-01-12T18:17:59.153Z,3.90
2023-01-12T18:20:25.813Z,3.17
2023-01-12T18:22:55.090Z,3.30
2023-01-12T18:25:21.826Z,4.20
2023-01-12T18:27:48.497Z,3.53
2023-01-12T18:30:17.983Z,3.57
2023-01-12T18:32:45.547Z,3.70
2023-01-12T18:35:16.080Z,3.47
2023-01-12T18:37:42.812Z,3.70
2023-01-12T18:40:10.096Z,3.20
2023-01-12T18:42:53.030Z,3.90
2023-01-12T18:45:27.290Z,5.30
2023-01-12T18:48:12.473Z,4.37
2023-01-12T18:50:58.049Z,3.80
2023-01-12T18:53:31.866Z,5.77
2023-01-12T18:55:58.926Z,4.30
2023-01-12T18:58:30.972Z,3.87
2023-01-12T19:01:04.819Z,4.40
2023-01-12T19:03:31.698Z,6.13
2023-01-12T19:05:58.354Z,4.03
2023-01-12T19:08:45.881Z,5.27
2023-01-12T19:11:14.187Z,3.60
2023-01-12T19:13:59.292Z,4.30
2023-01-12T19:16:44.651Z,3.33
2023-01-12T19:19:11.589Z,5.00
2023-01-12T19:21:56.722Z,3.53
2023-01-12T19:24:41.834Z,7.30
2023-01-12T19:27:30.451Z,4.77
2023-01-12T19:29:57.285Z,3.60
2023-01-12T19:32:24.323Z,3.53
2023-01-12T19:34:56.329Z,3.70
2023-01-12T19:37:23.343Z,3.77
2023-01-12T19:40:03.865Z,3.40
2023-01-12T19:42:50.913Z,4.13
2023-01-12T19:45:17.743Z,3.20
2023-01-12T19:47:44.427Z,3.90
2023-01-12T19:50:12.527Z,4.83
2023-01-12T19:52:40.795Z,3.00
2023-01-12T19:55:10.191Z,3.30
2023-01-12T19:57:37.593Z,2.90
2023-01-12T20:00:07.468Z,3.90
2023-01-12T20:02:38.987Z,3.60
2023-01-12T20:05:05.898Z,3.47
2023-01-12T20:07:32.600Z,3.27
2023-01-12T20:09:59.993Z,3.40
2023-01-12T20:12:26.856Z,3.90
2023-01-12T20:14:53.465Z,3.60
2023-01-12T20:17:20.188Z,3.63
2023-01-12T20:19:47.301Z,3.30
2023-01-12T20:22:14.249Z,3.17
2023-01-12T20:24:40.949Z,4.10
2023-01-12T20:27:10.025Z,3.20
2023-01-12T20:29:36.700Z,3.63
2023-01-12T20:32:03.510Z,4.10
2023-01-12T20:34:31.367Z,3.53
2023-01-12T20:36:58.001Z,4.23
2023-01-12T20:39:25.722Z,4.27
2023-01-12T20:41:52.804Z,4.30
2023-01-12T20:44:20.615Z,3.90
2023-01-12T20:46:47.388Z,4.07
2023-01-12T20:49:14.199Z,4.07
2023-01-12T20:51:40.906Z,4.03
2023-01-12T20:54:07.928Z,4.77
2023-01-12T20:56:34.691Z,3.50
2023-01-12T20:59:01.692Z,5.27
2023-01-12T21:01:28.930Z,4.13
2023-01-12T21:03:55.696Z,3.70
2023-01-12T21:06:22.783Z,3.57
2023-01-12T21:08:49.491Z,3.83
2023-01-12T21:11:18.418Z,3.10
2023-01-12T21:13:45.488Z,3.00
2023-01-12T21:16:14.287Z,3.30
2023-01-12T21:18:41.464Z,2.87
2023-01-12T21:21:08.405Z,3.00
2023-01-12T21:23:35.198Z,3.20
2023-01-12T21:26:01.992Z,3.00
2023-01-12T21:28:30.297Z,3.30
2023-01-12T21:31:00.715Z,2.67
2023-01-12T21:33:27.420Z,3.10
2023-01-12T21:35:55.887Z,3.17
2023-01-12T21:38:23.540Z,2.93
2023-01-12T21:40:50.275Z,3.73
2023-01-12T21:43:18.133Z,3.30
2023-01-12T21:45:50.685Z,2.90
2023-01-12T21:48:18.968Z,3.20
2023-01-12T21:50:45.899Z,3.50
2023-01-12T21:53:18.146Z,2.93
2023-01-12T21:55:56.533Z,3.27
2023-01-12T21:58:28.695Z,3.13
2023-01-12T22:00:56.427Z,3.40
2023-01-12T22:03:24.811Z,3.53
2023-01-12T22:05:51.517Z,3.73
2023-01-12T22:08:18.578Z,3.27
2023-01-12T22:10:45.460Z,3.20
2023-01-12T22:13:16.581Z,4.23
2023-01-12T22:15:43.433Z,4.10
2023-01-12T22:18:10.152Z,3.90
2023-01-12T22:20:38.677Z,3.97
2023-01-12T22:23:05.341Z,3.47
2023-01-12T22:25:32.014Z,4.33
2023-01-12T22:27:58.642Z,4.50
2023-01-12T22:30:25.279Z,4.20
2023-01-12T22:32:54.444Z,4.67
2023-01-12T22:35:21.192Z,4.43
2023-01-12T22:37:48.003Z,4.73
2023-01-12T22:40:15.931Z,4.80
2023-01-12T22:43:01.357Z,4.83
2023-01-12T22:45:28.183Z,4.80
2023-01-12T22:47:56.058Z,4.37
2023-01-12T22:50:24.389Z,4.80
2023-01-12T22:52:52.698Z,4.33
2023-01-12T22:55:20.541Z,4.70
2023-01-12T22:57:47.180Z,4.50
2023-01-12T23:00:18.459Z,4.30
2023-01-12T23:03:00.850Z,4.50
2023-01-12T23:05:36.520Z,4.67
2023-01-12T23:08:05.126Z,4.27
2023-01-12T23:10:32.068Z,4.17
2023-01-12T23:13:17.266Z,4.40
2023-01-12T23:15:46.444Z,4.53
2023-01-12T23:18:15.801Z,4.87
2023-01-12T23:20:42.666Z,4.40
2023-01-12T23:23:10.574Z,4.37
2023-01-12T23:25:37.320Z,4.13
2023-01-12T23:28:04.852Z,4.40
2023-01-12T23:30:31.495Z,4.20
2023-01-12T23:33:00.060Z,3.83
2023-01-12T23:35:27.259Z,4.60
2023-01-12T23:37:56.270Z,4.23
2023-01-12T23:40:23.022Z,4.47
2023-01-12T23:42:49.680Z,4.40
2023-01-12T23:45:16.393Z,4.53
2023-01-12T23:47:43.055Z,4.40
2023-01-12T23:50:11.551Z,5.60
2023-01-12T23:52:38.598Z,4.80
2023-01-12T23:55:06.896Z,4.43
2023-01-12T23:57:33.770Z,4.73
